Time;durP1;ratioP1;P1;durP2;ratioP2;P2;SDS_P1;SDS_P2;PMS_P1;PMS_P2;Temp;Humidity;BMP_temperature;BMP_pressure;BME280_temperature;BME280_humidity;BME280_pressure;Samples;Min_cycle;Max_cycle;Signal;HPM_P1;HPM_P2
2022/04/07 00:00:00;;;;;;;364.30;154.90;;;;;;;-144.77;100.00;59014.09;341343;29;1024;-68
2022/04/07 00:00:13;;;;;;;364.87;155.63;;;;;;;-144.77;100.00;59014.09;341447;29;1152;-68
2022/04/07 00:00:23;;;;;;;364.77;154.32;;;;;;;-144.77;100.00;59014.09;339968;29;1285;-68
2022/04/07 00:00:33;;;;;;;363.37;152.23;;;;;;;-144.77;100.00;59014.09;340197;29;827;-69
2022/04/07 00:00:44;;;;;;;361.02;148.05;;;;;;;-144.77;100.00;59014.09;341335;29;1144;-69
2022/04/07 00:00:54;;;;;;;359.87;148.20;;;;;;;-144.77;100.00;59014.09;342796;28;782;-68
2022/04/07 00:01:05;;;;;;;360.23;150.85;;;;;;;-144.77;100.00;59014.09;341437;29;925;-69
2022/04/07 00:01:15;;;;;;;359.87;150.73;;;;;;;-144.77;100.00;59014.09;340178;29;778;-69
2022/04/07 00:01:26;;;;;;;360.23;151.93;;;;;;;-144.77;100.00;59014.09;342802;28;782;-69
2022/04/07 00:01:37;;;;;;;361.23;152.18;;;;;;;-144.77;100.00;59014.09;342689;28;1218;-69
2022/04/07 00:01:47;;;;;;;362.03;154.33;;;;;;;-144.77;100.00;59014.09;341230;29;1285;-69
2022/04/07 00:01:57;;;;;;;364.92;158.68;;;;;;;-144.77;100.00;59014.09;342591;28;1304;-69
2022/04/07 00:02:08;;;;;;;365.77;157.53;;;;;;;-144.77;100.00;59014.09;342835;28;806;-69
2022/04/07 00:02:18;;;;;;;365.77;157.63;;;;;;;-144.77;100.00;59014.09;342903;28;932;-69
2022/04/07 00:02:29;;;;;;;361.03;153.07;;;;;;;-144.77;100.00;59014.09;341867;28;1634;-68
2022/04/07 00:02:39;;;;;;;361.00;151.70;;;;;;;-144.77;100.00;59014.09;340240;29;862;-69
2022/04/07 00:02:50;;;;;;;363.40;151.97;;;;;;;-144.77;100.00;59014.09;339795;29;1817;-68
2022/04/07 00:03:01;;;;;;;366.08;151.90;;;;;;;-144.77;100.00;59014.09;339519;29;1656;-68
2022/04/07 00:03:11;;;;;;;366.10;152.73;;;;;;;-144.77;100.00;59014.09;341505;29;912;-68
2022/04/07 00:03:21;;;;;;;364.67;150.83;;;;;;;-144.77;100.00;59014.09;340019;29;1751;-68
2022/04/07 00:03:32;;;;;;;364.02;150.63;;;;;;;-144.77;100.00;59014.09;341179;29;894;-68
2022/04/07 00:03:42;;;;;;;361.37;148.27;;;;;;;-144.77;100.00;59014.09;341481;29;909;-68
2022/04/07 00:03:53;;;;;;;364.45;148.10;;;;;;;-144.77;100.00;59014.09;341573;29;997;-68
2022/04/07 00:04:04;;;;;;;362.95;147.32;;;;;;;-144.77;100.00;59014.09;342854;28;1100;-70
2022/04/07 00:04:14;;;;;;;362.23;147.57;;;;;;;-144.77;100.00;59014.09;338799;29;1371;-70
2022/04/07 00:04:25;;;;;;;359.90;148.07;;;;;;;-144.77;100.00;59014.09;341042;28;1428;-68
2022/04/07 00:04:35;;;;;;;362.60;150.47;;;;;;;-144.77;100.00;59014.09;341258;28;1242;-68
2022/04/07 00:04:45;;;;;;;363.90;150.77;;;;;;;-144.77;100.00;59014.09;342686;28;869;-69
2022/04/07 00:04:56;;;;;;;361.50;150.30;;;;;;;-144.77;100.00;59014.09;341425;29;885;-69
2022/04/07 00:05:07;;;;;;;357.25;145.35;;;;;;;-144.77;100.00;59014.09;339994;29;1312;-69
2022/04/07 00:05:17;;;;;;;359.27;145.27;;;;;;;-144.77;100.00;59014.09;341462;29;869;-69
2022/04/07 00:05:27;;;;;;;360.05;144.95;;;;;;;-144.77;100.00;59014.09;341357;29;821;-69
2022/04/07 00:05:38;;;;;;;361.67;146.67;;;;;;;-144.77;100.00;59014.09;342572;28;927;-69
2022/04/07 00:05:48;;;;;;;360.15;147.23;;;;;;;-144.77;100.00;59014.09;345284;28;1278;-68
2022/04/07 00:05:59;;;;;;;359.97;147.60;;;;;;;-144.77;100.00;59014.09;342804;28;1008;-68
2022/04/07 00:06:12;;;;;;;359.92;146.98;;;;;;;-144.77;100.00;59014.09;344221;28;793;-68
2022/04/07 00:06:24;;;;;;;360.27;148.10;;;;;;;-144.77;100.00;59014.09;341770;28;1330;-68
2022/04/07 00:06:35;;;;;;;360.95;148.70;;;;;;;-144.77;100.00;59014.09;341458;29;1482;-68
2022/04/07 00:06:45;;;;;;;361.37;147.23;;;;;;;-144.77;100.00;59014.09;341234;29;1217;-69
2022/04/07 00:06:56;;;;;;;362.55;148.85;;;;;;;-144.77;100.00;59014.09;341411;29;846;-69
2022/04/07 00:07:06;;;;;;;363.60;149.33;;;;;;;-144.77;100.00;59014.09;341458;29;1301;-69
2022/04/07 00:07:16;;;;;;;363.23;148.95;;;;;;;-144.77;100.00;59014.09;342649;28;1184;-69
2022/04/07 00:07:27;;;;;;;363.37;148.63;;;;;;;-144.77;100.00;59014.09;340997;29;1626;-68
2022/04/07 00:07:37;;;;;;;361.30;148.17;;;;;;;-144.77;100.00;59014.09;341284;29;1250;-68
2022/04/07 00:07:48;;;;;;;362.52;149.90;;;;;;;-144.77;100.00;59014.09;340013;29;1009;-69
2022/04/07 00:07:58;;;;;;;362.50;151.17;;;;;;;-144.77;100.00;59014.09;341411;29;886;-68
2022/04/07 00:08:10;;;;;;;364.00;151.15;;;;;;;-144.77;100.00;59014.09;342621;28;1313;-68
2022/04/07 00:08:21;;;;;;;360.63;148.57;;;;;;;-144.77;100.00;59014.09;342762;28;962;-68
2022/04/07 00:08:31;;;;;;;361.47;149.10;;;;;;;-144.77;100.00;59014.09;342754;28;908;-68
2022/04/07 00:08:41;;;;;;;361.03;146.87;;;;;;;-144.77;100.00;59014.09;342863;28;794;-67
2022/04/07 00:08:52;;;;;;;361.00;146.40;;;;;;;-144.77;100.00;59014.09;341388;29;783;-68
2022/04/07 00:09:03;;;;;;;358.85;143.35;;;;;;;-144.77;100.00;59014.09;341369;29;914;-68
2022/04/07 00:09:14;;;;;;;359.05;145.85;;;;;;;-144.77;100.00;59014.09;342665;28;1425;-68
2022/04/07 00:09:24;;;;;;;359.90;147.50;;;;;;;-144.77;100.00;59014.09;343419;28;1224;-68
2022/04/07 00:09:34;;;;;;;360.10;151.60;;;;;;;-144.77;100.00;59014.09;342504;28;1261;-68
2022/04/07 00:09:45;;;;;;;359.65;149.57;;;;;;;-144.77;100.00;59014.09;341409;29;937;-68
2022/04/07 00:09:55;;;;;;;359.20;149.13;;;;;;;-144.77;100.00;59014.09;341356;29;1124;-68
2022/04/07 00:10:06;;;;;;;357.85;145.93;;;;;;;-144.77;100.00;59014.09;341402;29;1309;-68
2022/04/07 00:10:16;;;;;;;358.53;147.13;;;;;;;-144.77;100.00;59014.09;341387;29;1191;-67
2022/04/07 00:10:27;;;;;;;359.27;148.50;;;;;;;-144.77;100.00;59014.09;342787;28;857;-69
2022/04/07 00:10:37;;;;;;;360.10;150.23;;;;;;;-144.77;100.00;59014.09;342835;28;731;-68
2022/04/07 00:10:48;;;;;;;361.35;152.57;;;;;;;-144.77;100.00;59014.09;342624;28;1404;-68
2022/04/07 00:10:58;;;;;;;361.80;151.67;;;;;;;-144.77;100.00;59014.09;342793;28;744;-68
2022/04/07 00:11:09;;;;;;;363.00;151.80;;;;;;;-144.77;100.00;59014.09;342737;28;1251;-68
2022/04/07 00:11:19;;;;;;;361.93;149.87;;;;;;;-144.77;100.00;59014.09;340088;29;1439;-68
2022/04/07 00:11:30;;;;;;;362.08;150.52;;;;;;;-144.77;100.00;59014.09;339836;29;1309;-69
2022/04/07 00:11:40;;;;;;;360.33;146.82;;;;;;;-144.77;100.00;59014.09;340043;29;1296;-68
2022/04/07 00:11:52;;;;;;;359.07;145.83;;;;;;;-144.77;100.00;59014.09;341633;29;810;-68
2022/04/07 00:12:03;;;;;;;359.70;147.70;;;;;;;-144.77;100.00;59014.09;342693;28;1802;-68
2022/04/07 00:12:14;;;;;;;361.15;151.50;;;;;;;-144.77;100.00;59014.09;342502;28;1471;-68
2022/04/07 00:12:24;;;;;;;362.45;153.70;;;;;;;-144.77;100.00;59014.09;341442;28;1801;-68
2022/04/07 00:12:37;;;;;;;360.53;151.60;;;;;;;-144.77;100.00;59014.09;340958;29;1149;-68
2022/04/07 00:12:47;;;;;;;361.40;150.63;;;;;;;-144.77;100.00;59014.09;340272;29;964;-68
2022/04/07 00:12:57;;;;;;;361.10;150.90;;;;;;;-144.77;100.00;59014.09;340066;29;988;-68
2022/04/07 00:13:08;;;;;;;359.77;149.45;;;;;;;-144.77;100.00;59014.09;340125;29;822;-68
2022/04/07 00:13:18;;;;;;;360.23;147.77;;;;;;;-144.77;100.00;59014.09;338738;29;1182;-68
2022/04/07 00:13:28;;;;;;;357.53;143.87;;;;;;;-144.77;100.00;59014.09;338676;29;881;-68
2022/04/07 00:13:39;;;;;;;356.40;143.80;;;;;;;-144.77;100.00;59014.09;341304;29;1595;-68
2022/04/07 00:13:49;;;;;;;355.73;144.87;;;;;;;-144.77;100.00;59014.09;338868;29;798;-68
2022/04/07 00:14:00;;;;;;;355.88;146.80;;;;;;;-144.77;100.00;59014.09;338671;29;1964;-68
2022/04/07 00:14:10;;;;;;;358.73;149.57;;;;;;;-144.77;100.00;59014.09;338572;29;1073;-68
2022/04/07 00:14:21;;;;;;;361.48;152.88;;;;;;;-144.77;100.00;59014.09;338801;29;954;-68
2022/04/07 00:14:31;;;;;;;364.40;153.97;;;;;;;-144.77;100.00;59014.09;341325;29;1180;-68
2022/04/07 00:14:41;;;;;;;362.48;152.10;;;;;;;-144.77;100.00;59014.09;342672;28;1285;-68
2022/04/07 00:14:52;;;;;;;362.00;152.77;;;;;;;-144.77;100.00;59014.09;340083;29;813;-68
2022/04/07 00:15:02;;;;;;;361.98;154.75;;;;;;;-144.77;100.00;59014.09;339165;29;803;-68
2022/04/07 00:15:13;;;;;;;363.17;156.03;;;;;;;-144.77;100.00;59014.09;340029;29;1323;-67
2022/04/07 00:15:23;;;;;;;366.40;160.20;;;;;;;-144.77;100.00;59014.09;341321;29;1349;-68
2022/04/07 00:15:34;;;;;;;365.47;158.57;;;;;;;-144.77;100.00;59014.09;341379;29;810;-68
2022/04/07 00:15:44;;;;;;;364.35;158.45;;;;;;;-144.77;100.00;59014.09;342820;28;881;-69
2022/04/07 00:15:56;;;;;;;362.33;155.77;;;;;;;-144.77;100.00;59014.09;342489;28;1292;-69
2022/04/07 00:16:06;;;;;;;362.10;155.45;;;;;;;-144.77;100.00;59014.09;343979;28;1226;-69
2022/04/07 00:16:17;;;;;;;360.17;154.20;;;;;;;-144.77;100.00;59014.09;339952;29;5101;-69
2022/04/07 00:16:27;;;;;;;358.92;151.73;;;;;;;-144.77;100.00;59014.09;342804;28;880;-69
2022/04/07 00:16:38;;;;;;;360.80;155.10;;;;;;;-144.77;100.00;59014.09;342716;28;1186;-69
2022/04/07 00:16:48;;;;;;;361.73;155.20;;;;;;;-144.77;100.00;59014.09;342621;28;1317;-69
2022/04/07 00:16:59;;;;;;;360.20;156.00;;;;;;;-144.77;100.00;59014.09;341318;29;1233;-69
2022/04/07 00:17:09;;;;;;;360.10;154.35;;;;;;;-144.77;100.00;59014.09;342914;28;1257;-69
2022/04/07 00:17:19;;;;;;;360.15;153.43;;;;;;;-144.77;100.00;59014.09;342657;28;1374;-69
2022/04/07 00:17:30;;;;;;;361.20;154.40;;;;;;;-144.77;100.00;59014.09;342276;28;1510;-69
2022/04/07 00:17:40;;;;;;;361.42;156.07;;;;;;;-144.77;100.00;59014.09;341427;29;903;-69
2022/04/07 00:17:51;;;;;;;361.47;156.17;;;;;;;-144.77;100.00;59014.09;341348;28;1185;-69
2022/04/07 00:18:01;;;;;;;360.70;152.97;;;;;;;-144.77;100.00;59014.09;341335;29;1387;-69
2022/04/07 00:18:11;;;;;;;360.27;152.00;;;;;;;-144.77;100.00;59014.09;342794;28;802;-67
2022/04/07 00:18:22;;;;;;;362.20;156.53;;;;;;;-144.77;100.00;59014.09;342748;28;858;-68
2022/04/07 00:18:33;;;;;;;362.38;158.20;;;;;;;-144.77;100.00;59014.09;343314;28;1007;-68
2022/04/07 00:18:43;;;;;;;363.90;159.90;;;;;;;-144.77;100.00;59014.09;341368;29;1506;-68
2022/04/07 00:18:53;;;;;;;363.57;158.93;;;;;;;-144.77;100.00;59014.09;339268;29;1892;-68
2022/04/07 00:19:05;;;;;;;364.15;159.65;;;;;;;-144.77;100.00;59014.09;341814;28;1196;-68
2022/04/07 00:19:16;;;;;;;365.10;159.90;;;;;;;-144.77;100.00;59014.09;340063;29;1268;-68
2022/04/07 00:19:26;;;;;;;365.92;160.15;;;;;;;-144.77;100.00;59014.09;338843;29;1232;-68
2022/04/07 00:19:37;;;;;;;365.50;160.57;;;;;;;-144.77;100.00;59014.09;339959;29;1310;-68
2022/04/07 00:19:48;;;;;;;365.90;160.80;;;;;;;-144.77;100.00;59014.09;341527;29;893;-68
2022/04/07 00:19:58;;;;;;;364.23;156.43;;;;;;;-144.77;100.00;59014.09;341368;29;949;-69
2022/04/07 00:20:09;;;;;;;362.77;153.52;;;;;;;-144.77;100.00;59014.09;342944;28;845;-69
2022/04/07 00:20:20;;;;;;;360.83;150.45;;;;;;;-144.77;100.00;59014.09;342719;28;1191;-69
2022/04/07 00:20:31;;;;;;;358.65;149.93;;;;;;;-144.77;100.00;59014.09;341294;28;1188;-69
2022/04/07 00:20:43;;;;;;;357.80;150.30;;;;;;;-144.77;100.00;59014.09;342859;28;787;-68
2022/04/07 00:20:53;;;;;;;357.05;149.55;;;;;;;-144.77;100.00;59014.09;341233;28;1476;-68
2022/04/07 00:21:11;;;;;;;356.85;149.27;;;;;;;-144.77;100.00;59014.09;342756;28;822;-68
2022/04/07 00:21:24;;;;;;;357.73;151.02;;;;;;;-144.77;100.00;59014.09;342803;28;885;-68
2022/04/07 00:21:35;;;;;;;360.80;153.55;;;;;;;-144.77;100.00;59014.09;342502;28;958;-69
2022/04/07 00:21:46;;;;;;;358.93;153.60;;;;;;;-144.77;100.00;59014.09;342769;28;1300;-69
2022/04/07 00:21:57;;;;;;;359.40;153.82;;;;;;;-144.77;100.00;59014.09;343996;28;1248;-68
2022/04/07 00:22:07;;;;;;;358.05;151.90;;;;;;;-144.77;100.00;59014.09;345379;28;960;-68
2022/04/07 00:22:18;;;;;;;360.53;156.03;;;;;;;-144.77;100.00;59014.09;344220;28;814;-68
2022/04/07 00:22:28;;;;;;;361.98;156.93;;;;;;;-144.77;100.00;59014.09;340378;29;1535;-68
2022/04/07 00:22:39;;;;;;;364.67;159.47;;;;;;;-144.77;100.00;59014.09;341029;28;1207;-68
2022/04/07 00:22:50;;;;;;;365.00;158.82;;;;;;;-144.77;100.00;59014.09;340138;29;838;-68
2022/04/07 00:23:00;;;;;;;367.95;162.38;;;;;;;-144.77;100.00;59014.09;340711;29;1385;-68
2022/04/07 00:23:11;;;;;;;369.52;165.45;;;;;;;-144.77;100.00;59014.09;341358;29;924;-68
2022/04/07 00:23:21;;;;;;;372.63;167.53;;;;;;;-144.77;100.00;59014.09;341450;29;905;-68
2022/04/07 00:23:32;;;;;;;370.30;166.35;;;;;;;-144.77;100.00;59014.09;340069;29;858;-68
2022/04/07 00:23:42;;;;;;;368.67;164.23;;;;;;;-144.77;100.00;59014.09;340633;29;1450;-68
2022/04/07 00:23:53;;;;;;;366.60;164.27;;;;;;;-144.77;100.00;59014.09;341264;29;1308;-68
2022/04/07 00:24:04;;;;;;;367.23;166.10;;;;;;;-144.77;100.00;59014.09;340127;29;1180;-68
2022/04/07 00:24:14;;;;;;;369.53;169.73;;;;;;;-144.77;100.00;59014.09;339977;29;1158;-68
2022/04/07 00:24:25;;;;;;;368.10;168.55;;;;;;;-144.77;100.00;59014.09;339894;29;1351;-68
2022/04/07 00:24:35;;;;;;;367.23;163.43;;;;;;;-144.77;100.00;59014.09;339848;29;1229;-68
2022/04/07 00:24:45;;;;;;;364.63;159.65;;;;;;;-144.77;100.00;59014.09;338867;29;873;-68
2022/04/07 00:24:56;;;;;;;367.00;160.10;;;;;;;-144.77;100.00;59014.09;339175;29;858;-69
2022/04/07 00:25:07;;;;;;;365.52;162.23;;;;;;;-144.77;100.00;59014.09;340115;29;1400;-68
2022/04/07 00:25:17;;;;;;;363.67;160.85;;;;;;;-144.77;100.00;59014.09;341346;29;1004;-68
2022/04/07 00:25:30;;;;;;;361.43;159.07;;;;;;;-144.77;100.00;59014.09;339943;29;1182;-68
2022/04/07 00:25:40;;;;;;;363.67;156.15;;;;;;;-144.77;100.00;59014.09;339549;29;1247;-69
2022/04/07 00:25:50;;;;;;;365.53;156.63;;;;;;;-144.77;100.00;59014.09;338675;29;1187;-69
2022/04/07 00:26:01;;;;;;;364.85;155.38;;;;;;;-144.77;100.00;59014.09;340084;29;906;-69
2022/04/07 00:26:11;;;;;;;360.23;151.83;;;;;;;-144.77;100.00;59014.09;341015;29;1375;-69
2022/04/07 00:26:22;;;;;;;361.98;153.60;;;;;;;-144.77;100.00;59014.09;342577;28;1985;-69
2022/04/07 00:26:32;;;;;;;362.40;154.47;;;;;;;-144.77;100.00;59014.09;340010;29;1425;-69
2022/04/07 00:26:43;;;;;;;365.05;159.93;;;;;;;-144.77;100.00;59014.09;340153;29;921;-69
2022/04/07 00:26:53;;;;;;;365.87;160.60;;;;;;;-144.77;100.00;59014.09;339985;29;802;-69
2022/04/07 00:27:03;;;;;;;366.77;161.75;;;;;;;-144.77;100.00;59014.09;340154;29;969;-69
2022/04/07 00:27:14;;;;;;;365.33;160.30;;;;;;;-144.77;100.00;59014.09;339946;29;878;-70
2022/04/07 00:27:24;;;;;;;365.27;160.17;;;;;;;-144.77;100.00;59014.09;341150;29;1666;-68
2022/04/07 00:27:34;;;;;;;367.60;161.75;;;;;;;-144.77;100.00;59014.09;341256;29;1198;-68
2022/04/07 00:27:45;;;;;;;369.17;162.33;;;;;;;-144.77;100.00;59014.09;341506;29;765;-68
2022/04/07 00:27:55;;;;;;;368.63;160.73;;;;;;;-144.77;100.00;59014.09;339876;29;1136;-68
2022/04/07 00:28:06;;;;;;;366.93;159.20;;;;;;;-144.77;100.00;59014.09;340698;28;1319;-68
2022/04/07 00:28:16;;;;;;;367.85;160.23;;;;;;;-144.77;100.00;59014.09;341440;29;838;-68
2022/04/07 00:28:27;;;;;;;367.60;161.43;;;;;;;-144.77;100.00;59014.09;340863;28;1482;-68
2022/04/07 00:28:37;;;;;;;369.15;164.02;;;;;;;-144.77;100.00;59014.09;342294;28;1139;-68
2022/04/07 00:28:47;;;;;;;368.37;164.97;;;;;;;-144.77;100.00;59014.09;338749;29;1304;-68
2022/04/07 00:28:58;;;;;;;369.05;166.55;;;;;;;-144.77;100.00;59014.09;340719;29;827;-68
2022/04/07 00:29:08;;;;;;;365.70;161.57;;;;;;;-144.77;100.00;59014.09;342259;28;1474;-68
2022/04/07 00:29:19;;;;;;;366.30;162.27;;;;;;;-144.77;100.00;59014.09;342812;28;889;-68
2022/04/07 00:29:29;;;;;;;365.67;161.13;;;;;;;-144.77;100.00;59014.09;340492;29;1112;-68
2022/04/07 00:29:40;;;;;;;364.05;159.40;;;;;;;-144.77;100.00;59014.09;341345;29;877;-68
2022/04/07 00:29:50;;;;;;;361.97;156.00;;;;;;;-144.77;100.00;59014.09;341486;29;918;-68
2022/04/07 00:30:02;;;;;;;361.73;154.35;;;;;;;-144.77;100.00;59014.09;342620;28;853;-68
2022/04/07 00:30:15;;;;;;;364.42;157.55;;;;;;;-144.77;100.00;59014.09;341442;29;1350;-68
2022/04/07 00:30:26;;;;;;;363.92;159.93;;;;;;;-144.77;100.00;59014.09;343937;28;1321;-68
2022/04/07 00:30:37;;;;;;;364.23;162.40;;;;;;;-144.77;100.00;59014.09;342351;28;840;-68
2022/04/07 00:30:49;;;;;;;364.95;162.95;;;;;;;-144.77;100.00;59014.09;344057;28;1521;-68
2022/04/07 00:30:59;;;;;;;363.98;159.50;;;;;;;-144.77;100.00;59014.09;341380;29;954;-68
2022/04/07 00:31:11;;;;;;;362.07;155.37;;;;;;;-144.77;100.00;59014.09;339950;29;1247;-68
2022/04/07 00:31:21;;;;;;;361.73;152.43;;;;;;;-144.77;100.00;59014.09;340117;29;909;-68
2022/04/07 00:31:42;;;;;;;362.20;155.27;;;;;;;-144.77;100.00;59014.09;341203;29;931;-68
2022/04/07 00:31:58;;;;;;;363.67;159.07;;;;;;;-144.77;100.00;59014.09;340038;29;881;-68
2022/04/07 00:32:08;;;;;;;367.08;160.88;;;;;;;-144.77;100.00;59014.09;341288;29;1469;-68
2022/04/07 00:32:19;;;;;;;367.02;160.07;;;;;;;-144.77;100.00;59014.09;341350;29;1439;-68
2022/04/07 00:32:30;;;;;;;368.13;160.70;;;;;;;-144.77;100.00;59014.09;341157;29;2015;-68
2022/04/07 00:32:43;;;;;;;365.88;159.73;;;;;;;-144.77;100.00;59014.09;341340;29;857;-68
2022/04/07 00:32:53;;;;;;;368.27;163.18;;;;;;;-144.77;100.00;59014.09;341458;29;897;-68
2022/04/07 00:33:04;;;;;;;367.00;162.20;;;;;;;-144.77;100.00;59014.09;339784;29;1343;-68
2022/04/07 00:33:15;;;;;;;369.67;163.33;;;;;;;-144.77;100.00;59014.09;339058;29;1746;-68
2022/04/07 00:33:25;;;;;;;370.55;161.50;;;;;;;-144.77;100.00;59014.09;339870;29;1408;-68
2022/04/07 00:33:36;;;;;;;367.00;158.60;;;;;;;-144.77;100.00;59014.09;341278;29;925;-69
2022/04/07 00:33:46;;;;;;;364.40;159.53;;;;;;;-144.77;100.00;59014.09;341376;29;1176;-69
2022/04/07 00:33:57;;;;;;;361.40;159.50;;;;;;;-144.77;100.00;59014.09;340970;29;1240;-69
2022/04/07 00:34:07;;;;;;;362.13;160.27;;;;;;;-144.77;100.00;59014.09;340151;29;934;-69
2022/04/07 00:34:17;;;;;;;362.50;157.68;;;;;;;-144.77;100.00;59014.09;338654;29;1313;-69
2022/04/07 00:34:28;;;;;;;361.80;156.27;;;;;;;-144.77;100.00;59014.09;339925;29;1194;-69
2022/04/07 00:34:39;;;;;;;363.27;158.07;;;;;;;-144.77;100.00;59014.09;339976;29;1410;-69
2022/04/07 00:34:54;;;;;;;364.27;160.68;;;;;;;-144.77;100.00;59014.09;338515;29;926;-69
2022/04/07 00:35:05;;;;;;;363.15;156.80;;;;;;;-144.77;100.00;59014.09;340142;29;949;-69
2022/04/07 00:35:16;;;;;;;362.83;157.90;;;;;;;-144.77;100.00;59014.09;340019;29;1192;-69
2022/04/07 00:35:27;;;;;;;363.35;162.82;;;;;;;-144.77;100.00;59014.09;340071;29;1391;-69
2022/04/07 00:35:37;;;;;;;364.63;162.02;;;;;;;-144.77;100.00;59014.09;340132;29;806;-69
2022/04/07 00:35:47;;;;;;;366.17;162.60;;;;;;;-144.77;100.00;59014.09;338677;29;1226;-69
2022/04/07 00:35:58;;;;;;;367.17;160.85;;;;;;;-144.77;100.00;59014.09;338777;29;1008;-69
2022/04/07 00:36:08;;;;;;;370.23;167.77;;;;;;;-144.77;100.00;59014.09;338783;29;928;-68
2022/04/07 00:36:19;;;;;;;371.73;170.45;;;;;;;-144.77;100.00;59014.09;338803;29;886;-68
2022/04/07 00:36:29;;;;;;;372.47;170.53;;;;;;;-144.77;100.00;59014.09;340196;29;822;-68
2022/04/07 00:36:40;;;;;;;371.33;166.00;;;;;;;-144.77;100.00;59014.09;338798;29;940;-68
2022/04/07 00:36:50;;;;;;;367.10;162.07;;;;;;;-144.77;100.00;59014.09;338762;29;1233;-68
2022/04/07 00:37:01;;;;;;;365.60;161.10;;;;;;;-144.77;100.00;59014.09;339921;29;1033;-68
2022/04/07 00:37:11;;;;;;;366.50;161.90;;;;;;;-144.77;100.00;59014.09;341392;29;1206;-68
2022/04/07 00:37:23;;;;;;;368.58;164.73;;;;;;;-144.77;100.00;59014.09;342785;28;896;-68
2022/04/07 00:37:33;;;;;;;368.65;166.95;;;;;;;-144.77;100.00;59014.09;340435;29;2603;-68
2022/04/07 00:37:44;;;;;;;368.47;168.13;;;;;;;-144.77;100.00;59014.09;340671;29;852;-68
2022/04/07 00:37:54;;;;;;;367.77;164.57;;;;;;;-144.77;100.00;59014.09;341360;28;825;-68
2022/04/07 00:38:04;;;;;;;366.23;163.60;;;;;;;-144.77;100.00;59014.09;338720;29;1360;-68
2022/04/07 00:38:15;;;;;;;362.23;160.33;;;;;;;-144.77;100.00;59014.09;340903;29;1237;-68
2022/04/07 00:38:25;;;;;;;361.05;160.25;;;;;;;-144.77;100.00;59014.09;339528;29;1543;-68
2022/04/07 00:38:35;;;;;;;362.47;160.43;;;;;;;-144.77;100.00;59014.09;340890;29;814;-68
2022/04/07 00:38:46;;;;;;;363.58;161.38;;;;;;;-144.77;100.00;59014.09;338437;29;1314;-68
2022/04/07 00:38:56;;;;;;;362.00;158.60;;;;;;;-144.77;100.00;59014.09;341167;29;873;-68
2022/04/07 00:39:07;;;;;;;361.45;156.77;;;;;;;-144.77;100.00;59014.09;339785;29;1182;-68
2022/04/07 00:39:17;;;;;;;361.30;155.60;;;;;;;-144.77;100.00;59014.09;339989;29;853;-68
2022/04/07 00:39:28;;;;;;;363.25;158.10;;;;;;;-144.77;100.00;59014.09;339704;29;1339;-68
2022/04/07 00:39:38;;;;;;;362.60;157.57;;;;;;;-144.77;100.00;59014.09;340876;28;1366;-68
2022/04/07 00:39:51;;;;;;;364.50;158.83;;;;;;;-144.77;100.00;59014.09;341013;28;1131;-68
2022/04/07 00:40:02;;;;;;;365.52;156.35;;;;;;;-144.77;100.00;59014.09;341108;29;1267;-69
2022/04/07 00:40:13;;;;;;;367.23;159.88;;;;;;;-144.77;100.00;59014.09;341188;29;977;-69
2022/04/07 00:40:23;;;;;;;366.65;159.60;;;;;;;-144.77;100.00;59014.09;339771;29;1325;-69
2022/04/07 00:40:34;;;;;;;367.83;163.43;;;;;;;-144.77;100.00;59014.09;339919;29;1058;-68
2022/04/07 00:40:44;;;;;;;368.53;163.53;;;;;;;-144.77;100.00;59014.09;341205;29;1499;-68
2022/04/07 00:40:54;;;;;;;367.00;160.10;;;;;;;-144.77;100.00;59014.09;342611;28;1409;-68
2022/04/07 00:41:05;;;;;;;367.50;158.23;;;;;;;-144.77;100.00;59014.09;339809;29;909;-68
2022/04/07 00:41:15;;;;;;;367.55;156.57;;;;;;;-144.77;100.00;59014.09;341289;29;763;-68
2022/04/07 00:41:25;;;;;;;367.60;156.77;;;;;;;-144.77;100.00;59014.09;339816;29;1222;-68
2022/04/07 00:41:38;;;;;;;366.77;156.95;;;;;;;-144.77;100.00;59014.09;340738;29;1233;-68
2022/04/07 00:41:48;;;;;;;363.52;156.32;;;;;;;-144.77;100.00;59014.09;341143;28;1380;-68
2022/04/07 00:41:59;;;;;;;364.00;155.37;;;;;;;-144.77;100.00;59014.09;341225;29;827;-68
2022/04/07 00:42:09;;;;;;;364.50;156.27;;;;;;;-144.77;100.00;59014.09;341156;29;909;-67
2022/04/07 00:42:19;;;;;;;362.90;151.97;;;;;;;-144.77;100.00;59014.09;341007;29;869;-69
2022/04/07 00:42:30;;;;;;;362.35;153.27;;;;;;;-144.77;100.00;59014.09;340419;29;1851;-69
2022/04/07 00:42:47;;;;;;;361.03;151.97;;;;;;;-144.77;100.00;59014.09;339752;29;1238;-68
2022/04/07 00:42:57;;;;;;;363.23;154.32;;;;;;;-144.77;100.00;59014.09;342784;28;1596;-68
2022/04/07 00:43:07;;;;;;;365.50;155.95;;;;;;;-144.77;100.00;59014.09;344078;28;1355;-68
2022/04/07 00:43:31;;;;;;;367.03;156.23;;;;;;;-144.77;100.00;59014.09;343772;28;1191;-68
2022/04/07 00:43:41;;;;;;;366.42;157.50;;;;;;;-144.77;100.00;59014.09;341175;29;913;-68
2022/04/07 00:43:52;;;;;;;366.60;158.23;;;;;;;-144.77;100.00;59014.09;338406;29;1276;-68
2022/04/07 00:44:02;;;;;;;366.63;157.93;;;;;;;-144.77;100.00;59014.09;338526;29;1306;-68
2022/04/07 00:44:13;;;;;;;367.77;158.73;;;;;;;-144.77;100.00;59014.09;338629;29;965;-68
2022/04/07 00:44:24;;;;;;;368.63;161.18;;;;;;;-144.77;100.00;59014.09;339860;29;874;-68
2022/04/07 00:44:34;;;;;;;368.48;160.73;;;;;;;-144.77;100.00;59014.09;341107;29;993;-68
2022/04/07 00:44:45;;;;;;;369.80;165.03;;;;;;;-144.77;100.00;59014.09;339806;29;1316;-68
2022/04/07 00:44:55;;;;;;;369.48;165.05;;;;;;;-144.77;100.00;59014.09;341960;28;1187;-68
2022/04/07 00:45:07;;;;;;;370.13;166.40;;;;;;;-144.77;100.00;59014.09;341048;28;1772;-68
2022/04/07 00:45:19;;;;;;;367.23;158.95;;;;;;;-144.77;100.00;59014.09;342542;28;884;-68
2022/04/07 00:45:30;;;;;;;365.08;155.82;;;;;;;-144.77;100.00;59014.09;342415;28;900;-68
2022/04/07 00:45:40;;;;;;;363.93;152.73;;;;;;;-144.77;100.00;59014.09;342611;28;846;-68
2022/04/07 00:45:51;;;;;;;364.42;154.48;;;;;;;-144.77;100.00;59014.09;342546;28;885;-68
2022/04/07 00:46:02;;;;;;;365.13;156.10;;;;;;;-144.77;100.00;59014.09;338511;29;1004;-68
2022/04/07 00:46:12;;;;;;;366.63;158.68;;;;;;;-144.77;100.00;59014.09;341252;29;1314;-68
2022/04/07 00:46:22;;;;;;;364.92;159.50;;;;;;;-144.77;100.00;59014.09;341121;29;1919;-68
2022/04/07 00:46:33;;;;;;;364.03;159.23;;;;;;;-144.77;100.00;59014.09;342423;28;850;-68
2022/04/07 00:46:43;;;;;;;365.48;163.50;;;;;;;-144.77;100.00;59014.09;342826;28;1258;-68
2022/04/07 00:46:54;;;;;;;365.27;162.37;;;;;;;-144.77;100.00;59014.09;341155;29;893;-68
2022/04/07 00:47:05;;;;;;;365.23;158.40;;;;;;;-144.77;100.00;59014.09;339900;29;901;-68
2022/04/07 00:47:16;;;;;;;364.05;154.50;;;;;;;-144.77;100.00;59014.09;339802;29;1208;-68
2022/04/07 00:47:27;;;;;;;367.30;157.93;;;;;;;-144.77;100.00;59014.09;340877;29;1626;-69
2022/04/07 00:47:38;;;;;;;366.90;157.55;;;;;;;-144.77;100.00;59014.09;338659;29;1527;-69
2022/04/07 00:47:49;;;;;;;365.33;154.07;;;;;;;-144.77;100.00;59014.09;340883;29;1354;-69
2022/04/07 00:47:59;;;;;;;364.58;154.45;;;;;;;-144.77;100.00;59014.09;341021;29;1377;-69
2022/04/07 00:48:09;;;;;;;365.93;159.87;;;;;;;-144.77;100.00;59014.09;342423;28;1190;-69